createdAt,value
2018-02-05T00:00:18.852Z,11.60
2018-02-05T00:02:45.124Z,10.60
2018-02-05T00:05:11.384Z,12.30
2018-02-05T00:07:38.459Z,11.60
2018-02-05T00:10:04.726Z,11.90
2018-02-05T00:12:31.015Z,10.90
2018-02-05T00:14:57.302Z,11.03
2018-02-05T00:17:24.319Z,10.27
2018-02-05T00:19:50.610Z,11.07
2018-02-05T00:22:17.624Z,11.17
2018-02-05T00:24:43.886Z,10.47
2018-02-05T00:27:10.889Z,11.10
2018-02-05T00:29:37.163Z,10.90
2018-02-05T00:32:04.201Z,9.60
2018-02-05T00:34:31.216Z,11.00
2018-02-05T00:36:57.497Z,10.43
2018-02-05T00:39:23.803Z,10.30
2018-02-05T00:41:50.849Z,10.47
2018-02-05T00:44:17.135Z,11.13
2018-02-05T00:46:43.429Z,11.53
2018-02-05T00:49:09.663Z,11.73
2018-02-05T00:51:35.918Z,10.97
2018-02-05T00:54:02.223Z,11.70
2018-02-05T00:56:28.513Z,9.90
2018-02-05T00:58:55.600Z,11.80
2018-02-05T01:01:21.943Z,11.50
2018-02-05T01:03:48.198Z,10.23
2018-02-05T01:06:14.508Z,11.33
2018-02-05T01:08:40.790Z,10.67
2018-02-05T01:11:07.064Z,11.10
2018-02-05T01:13:33.342Z,12.70
2018-02-05T01:15:59.647Z,10.30
2018-02-05T01:18:25.907Z,11.13
2018-02-05T01:20:52.208Z,11.47
2018-02-05T01:23:18.506Z,13.40
2018-02-05T01:25:44.736Z,9.97
2018-02-05T01:28:11.027Z,10.70
2018-02-05T01:30:37.295Z,11.13
2018-02-05T01:33:03.591Z,11.20
2018-02-05T01:35:30.601Z,11.83
2018-02-05T01:37:56.917Z,11.33
2018-02-05T01:40:23.175Z,9.27
2018-02-05T01:42:49.477Z,11.63
2018-02-05T01:45:15.710Z,9.87
2018-02-05T01:47:41.947Z,9.90
2018-02-05T01:50:08.227Z,10.90
2018-02-05T01:52:35.228Z,10.83
2018-02-05T01:55:01.492Z,11.13
2018-02-05T01:57:27.760Z,9.53
2018-02-05T01:59:54.010Z,9.63
2018-02-05T02:02:20.345Z,10.30
2018-02-05T02:04:46.622Z,9.70
2018-02-05T02:07:12.904Z,9.70
2018-02-05T02:09:39.175Z,10.33
2018-02-05T02:12:05.437Z,11.83
2018-02-05T02:14:31.710Z,10.67
2018-02-05T02:16:57.958Z,9.60
2018-02-05T02:19:24.262Z,10.77
2018-02-05T02:21:50.562Z,10.77
2018-02-05T02:24:16.835Z,13.10
2018-02-05T02:26:43.108Z,11.47
2018-02-05T02:29:10.136Z,11.37
2018-02-05T02:31:36.449Z,12.17
2018-02-05T02:34:02.735Z,11.13
2018-02-05T02:36:29.055Z,11.63
2018-02-05T02:38:55.294Z,12.10
2018-02-05T02:41:21.531Z,12.37
2018-02-05T02:43:47.800Z,11.80
2018-02-05T02:46:14.069Z,12.40
2018-02-05T02:48:41.089Z,12.10
2018-02-05T02:51:07.328Z,12.77
2018-02-05T02:53:34.307Z,12.40
2018-02-05T02:56:00.655Z,14.10
2018-02-05T02:58:26.934Z,11.90
2018-02-05T03:00:53.974Z,13.63
2018-02-05T03:03:20.255Z,12.47
2018-02-05T03:05:46.512Z,13.20
2018-02-05T03:08:12.796Z,11.80
2018-02-05T03:10:39.089Z,13.50
2018-02-05T03:13:05.346Z,12.63
2018-02-05T03:15:32.384Z,14.03
2018-02-05T03:17:59.361Z,12.13
2018-02-05T03:20:25.610Z,13.30
2018-02-05T03:22:51.882Z,11.67
2018-02-05T03:25:18.143Z,13.27
2018-02-05T03:27:44.400Z,12.30
2018-02-05T03:30:10.636Z,12.17
2018-02-05T03:32:36.899Z,12.50
2018-02-05T03:35:03.183Z,13.83
2018-02-05T03:37:29.485Z,13.30
2018-02-05T03:39:55.723Z,14.53
2018-02-05T03:42:22.003Z,12.23
2018-02-05T03:44:48.249Z,13.10
2018-02-05T03:47:15.235Z,12.90
2018-02-05T03:49:41.535Z,13.70
2018-02-05T03:52:08.563Z,14.10
2018-02-05T03:54:34.830Z,13.47
2018-02-05T03:57:01.102Z,12.40
2018-02-05T03:59:27.355Z,15.83
2018-02-05T04:01:53.646Z,14.43
2018-02-05T04:04:20.148Z,15.40
2018-02-05T04:06:53.491Z,14.63
2018-02-05T04:09:19.734Z,14.50
2018-02-05T04:11:46.781Z,13.47
2018-02-05T04:14:13.031Z,14.80
2018-02-05T04:16:40.291Z,14.97
2018-02-05T04:19:07.316Z,15.63
2018-02-05T04:21:33.631Z,16.73
2018-02-05T04:23:59.999Z,14.70
2018-02-05T04:26:26.984Z,13.80
2018-02-05T04:28:53.273Z,14.83
2018-02-05T04:31:20.341Z,14.67
2018-02-05T04:33:47.351Z,14.90
2018-02-05T04:36:13.700Z,16.77
2018-02-05T04:38:40.765Z,17.43
2018-02-05T04:41:07.806Z,17.13
2018-02-05T04:43:36.389Z,16.80
2018-02-05T04:46:02.777Z,17.77
2018-02-05T04:48:29.057Z,15.77
2018-02-05T04:50:55.329Z,17.53
2018-02-05T04:53:21.595Z,17.90
2018-02-05T04:55:48.626Z,19.80
2018-02-05T04:58:15.788Z,18.00
2018-02-05T05:00:42.032Z,18.70
2018-02-05T05:03:09.064Z,21.53
2018-02-05T05:05:35.364Z,18.50
2018-02-05T05:08:01.668Z,18.80
2018-02-05T05:10:27.926Z,19.53
2018-02-05T05:12:54.206Z,19.63
2018-02-05T05:15:21.245Z,21.53
2018-02-05T05:17:47.511Z,22.03
2018-02-05T05:20:13.808Z,24.50
2018-02-05T05:22:40.849Z,22.10
2018-02-05T05:25:07.123Z,20.70
2018-02-05T05:27:33.402Z,21.93
2018-02-05T05:29:59.679Z,20.87
2018-02-05T05:32:25.938Z,23.53
2018-02-05T05:34:52.267Z,21.77
2018-02-05T05:37:19.535Z,21.47
2018-02-05T05:39:45.876Z,21.73
2018-02-05T05:42:12.180Z,22.23
2018-02-05T05:44:38.454Z,23.57
2018-02-05T05:47:05.463Z,22.90
2018-02-05T05:49:31.693Z,22.67
2018-02-05T05:51:58.000Z,22.00
2018-02-05T05:54:24.377Z,23.07
2018-02-05T05:56:51.406Z,22.43
2018-02-05T05:59:17.698Z,21.20
2018-02-05T06:01:43.968Z,21.07
2018-02-05T06:04:10.242Z,22.07
2018-02-05T06:06:37.257Z,23.40
2018-02-05T06:09:03.586Z,24.13
2018-02-05T06:11:29.850Z,23.17
2018-02-05T06:13:56.838Z,26.10
2018-02-05T06:16:23.155Z,23.90
2018-02-05T06:18:49.465Z,23.20
2018-02-05T06:21:15.707Z,27.77
2018-02-05T06:23:41.985Z,23.53
2018-02-05T06:26:08.277Z,25.73
2018-02-05T06:28:34.557Z,25.90
2018-02-05T06:31:00.813Z,26.70
2018-02-05T06:33:27.351Z,25.27
2018-02-05T06:35:54.007Z,25.27
2018-02-05T06:38:19.913Z,25.50
2018-02-05T06:40:46.199Z,24.90
2018-02-05T06:43:13.936Z,25.20
2018-02-05T06:45:40.223Z,25.53
2018-02-05T06:48:07.220Z,24.43
2018-02-05T06:54:05.382Z,26.30
2018-02-05T06:56:31.642Z,25.57
2018-02-05T06:58:58.015Z,24.93
2018-02-05T07:01:25.036Z,26.30
2018-02-05T07:03:51.306Z,23.73
2018-02-05T07:06:18.290Z,25.87
2018-02-05T07:08:44.604Z,24.97
2018-02-05T07:11:10.868Z,25.57
2018-02-05T07:13:37.104Z,27.27
2018-02-05T07:16:03.407Z,25.97
2018-02-05T07:18:29.704Z,25.50
2018-02-05T07:20:56.717Z,26.33
2018-02-05T07:23:23.013Z,26.93
2018-02-05T07:25:49.247Z,24.67
2018-02-05T07:28:15.567Z,24.03
2018-02-05T07:30:41.831Z,25.97
2018-02-05T07:33:08.073Z,29.57
2018-02-05T07:35:34.343Z,26.67
2018-02-05T07:38:00.608Z,27.70
2018-02-05T07:40:26.915Z,28.37
2018-02-05T07:42:53.166Z,25.30
2018-02-05T07:45:19.399Z,28.60
2018-02-05T07:47:45.825Z,28.20
2018-02-05T07:50:12.071Z,27.87
2018-02-05T07:52:38.305Z,26.47
2018-02-05T07:55:04.584Z,28.93
2018-02-05T07:57:30.840Z,28.47
2018-02-05T07:59:57.504Z,27.20
2018-02-05T08:02:23.906Z,27.50
2018-02-05T08:04:50.306Z,25.27
2018-02-05T08:07:17.520Z,27.70
2018-02-05T08:09:43.910Z,25.27
2018-02-05T08:12:10.196Z,27.37
2018-02-05T08:14:36.956Z,29.03
2018-02-05T08:17:03.197Z,26.90
2018-02-05T08:19:29.489Z,25.20
2018-02-05T08:21:55.794Z,28.17
2018-02-05T08:24:22.087Z,28.33
2018-02-05T08:26:49.107Z,27.57
2018-02-05T08:29:16.929Z,26.17
2018-02-05T08:31:43.188Z,24.90
2018-02-05T08:34:09.463Z,28.93
2018-02-05T08:36:35.698Z,25.50
2018-02-05T08:39:01.948Z,26.13
2018-02-05T08:41:28.187Z,27.73
2018-02-05T08:43:54.470Z,27.37
2018-02-05T08:46:20.713Z,29.07
2018-02-05T08:48:46.994Z,27.13
2018-02-05T08:51:13.266Z,28.83
2018-02-05T08:53:40.267Z,27.80
2018-02-05T08:56:06.548Z,28.00
2018-02-05T08:58:32.840Z,27.63
2018-02-05T09:00:59.088Z,28.63
2018-02-05T09:03:26.084Z,29.93
2018-02-05T09:05:52.352Z,27.37
2018-02-05T09:08:18.650Z,28.23
2018-02-05T09:10:44.977Z,28.40
2018-02-05T09:13:11.253Z,26.70
2018-02-05T09:15:38.335Z,27.53
2018-02-05T09:18:04.595Z,27.20
2018-02-05T09:20:30.883Z,24.57
2018-02-05T09:22:57.136Z,24.90
2018-02-05T09:25:23.437Z,23.90
2018-02-05T09:27:50.501Z,24.07
2018-02-05T09:30:16.767Z,22.60
2018-02-05T09:32:43.059Z,22.17
2018-02-05T09:35:09.351Z,20.60
2018-02-05T09:37:35.651Z,21.60
2018-02-05T09:40:01.948Z,22.23
2018-02-05T09:45:27.895Z,21.97
2018-02-05T09:47:54.167Z,20.80
2018-02-05T09:50:20.477Z,24.57
2018-02-05T09:52:46.704Z,21.13
2018-02-05T09:55:13.315Z,21.63
2018-02-05T09:57:39.569Z,20.93
2018-02-05T10:00:05.857Z,19.93
2018-02-05T10:02:32.873Z,20.67
2018-02-05T10:04:59.207Z,18.90
2018-02-05T10:07:25.465Z,17.63
2018-02-05T10:09:52.451Z,18.20
2018-02-05T10:12:18.785Z,19.43
2018-02-05T10:14:45.100Z,18.97
2018-02-05T10:17:11.346Z,18.90
2018-02-05T10:19:37.595Z,18.67
2018-02-05T10:22:03.855Z,19.00
2018-02-05T10:24:30.874Z,21.53
2018-02-05T10:26:57.150Z,20.30
2018-02-05T10:29:24.212Z,19.57
2018-02-05T10:31:51.368Z,21.10
2018-02-05T10:34:17.706Z,21.07
2018-02-05T10:36:43.996Z,19.80
2018-02-05T10:39:10.984Z,20.33
2018-02-05T10:41:37.279Z,24.33
2018-02-05T10:44:04.333Z,24.07
2018-02-05T10:46:31.381Z,20.23
2018-02-05T10:48:57.731Z,22.00
2018-02-05T10:51:24.070Z,21.70
2018-02-05T10:53:50.379Z,23.53
2018-02-05T10:56:16.672Z,20.27
2018-02-05T10:58:42.965Z,21.03
2018-02-05T11:01:09.284Z,21.03
2018-02-05T11:03:36.516Z,21.47
2018-02-05T11:06:03.586Z,18.97
2018-02-05T11:08:29.912Z,19.57
2018-02-05T11:10:56.232Z,19.10
2018-02-05T11:13:23.343Z,21.80
2018-02-05T11:15:49.798Z,18.50
2018-02-05T11:18:16.843Z,15.40
2018-02-05T11:20:43.097Z,15.03
2018-02-05T11:23:09.419Z,13.80
2018-02-05T11:25:37.171Z,15.77
2018-02-05T11:28:04.159Z,15.90
2018-02-05T11:30:30.459Z,22.33
2018-02-05T11:32:57.493Z,25.97
2018-02-05T11:35:23.881Z,25.00
2018-02-05T11:37:50.161Z,23.40
2018-02-05T11:40:17.208Z,23.47
2018-02-05T11:42:44.279Z,25.13
2018-02-05T11:45:10.602Z,25.60
2018-02-05T11:47:36.920Z,20.90
2018-02-05T11:50:03.982Z,21.37
2018-02-05T11:52:30.984Z,24.43
2018-02-05T11:54:57.308Z,21.70
2018-02-05T11:57:24.506Z,19.63
2018-02-05T11:59:51.555Z,21.80
2018-02-05T12:02:18.607Z,21.00
2018-02-05T12:04:45.657Z,20.83
2018-02-05T12:07:11.971Z,21.73
2018-02-05T12:09:39.027Z,20.10
2018-02-05T12:12:06.081Z,17.33
2018-02-05T12:14:33.155Z,19.27
2018-02-05T12:16:59.463Z,17.03
2018-02-05T12:19:26.478Z,15.60
2018-02-05T12:21:52.809Z,15.30
2018-02-05T12:24:19.076Z,13.23
2018-02-05T12:26:45.399Z,12.73
2018-02-05T12:29:11.782Z,12.30
2018-02-05T12:31:38.064Z,10.60
2018-02-05T12:34:04.362Z,12.83
2018-02-05T12:36:30.676Z,10.63
2018-02-05T12:38:57.000Z,10.20
2018-02-05T12:41:24.152Z,10.77
2018-02-05T12:43:50.453Z,10.20
2018-02-05T12:46:16.783Z,12.20
2018-02-05T12:48:43.133Z,10.93
2018-02-05T12:51:09.419Z,10.30
2018-02-05T12:53:36.423Z,10.90
2018-02-05T12:56:02.713Z,10.37
2018-02-05T12:58:29.779Z,11.07
2018-02-05T13:01:02.166Z,10.53
2018-02-05T13:03:33.547Z,10.43
2018-02-05T13:06:00.097Z,9.20
2018-02-05T13:08:27.127Z,10.30
2018-02-05T13:10:53.374Z,9.23
2018-02-05T13:13:20.369Z,9.00
2018-02-05T13:15:46.660Z,9.47
2018-02-05T13:18:13.648Z,10.33
2018-02-05T13:20:39.976Z,9.23
2018-02-05T13:23:06.310Z,8.30
2018-02-05T13:25:32.546Z,8.60
2018-02-05T13:27:58.830Z,8.17
2018-02-05T13:30:25.867Z,10.17
2018-02-05T13:32:52.929Z,8.30
2018-02-05T13:35:19.969Z,8.50
2018-02-05T13:37:47.041Z,9.80
2018-02-05T13:40:13.349Z,9.60
2018-02-05T13:42:40.368Z,9.90
2018-02-05T13:45:06.694Z,8.60
2018-02-05T13:47:33.006Z,7.10
2018-02-05T13:49:59.309Z,7.63
2018-02-05T13:52:30.284Z,8.13
2018-02-05T13:55:09.523Z,8.50
2018-02-05T13:57:35.928Z,10.57
2018-02-05T14:00:02.260Z,11.87
2018-02-05T14:02:28.540Z,12.00
2018-02-05T14:04:55.343Z,10.80
2018-02-05T14:07:21.622Z,9.27
2018-02-05T14:09:48.005Z,11.10
2018-02-05T14:12:14.305Z,9.17
2018-02-05T14:14:40.661Z,9.00
2018-02-05T14:17:06.937Z,9.43
2018-02-05T14:19:33.233Z,8.93
2018-02-05T14:21:59.555Z,9.60
2018-02-05T14:24:26.069Z,7.63
2018-02-05T14:26:52.399Z,8.73
2018-02-05T14:29:18.689Z,7.50
2018-02-05T14:31:45.033Z,9.33
2018-02-05T14:34:11.409Z,7.23
2018-02-05T14:36:37.713Z,7.23
2018-02-05T14:39:04.730Z,7.33
2018-02-05T14:41:31.009Z,6.90
2018-02-05T14:43:57.290Z,7.00
2018-02-05T14:46:24.306Z,7.10
2018-02-05T14:48:50.586Z,7.87
2018-02-05T14:51:17.630Z,8.47
2018-02-05T14:53:44.853Z,8.97
2018-02-05T14:56:12.667Z,8.77
2018-02-05T14:58:39.703Z,9.63
2018-02-05T15:01:06.743Z,9.93
2018-02-05T15:03:32.993Z,9.50
2018-02-05T15:05:59.342Z,9.47
2018-02-05T15:08:25.622Z,8.70
2018-02-05T15:10:51.919Z,8.53
2018-02-05T15:13:18.251Z,6.90
2018-02-05T15:15:44.602Z,8.20
2018-02-05T15:18:10.917Z,7.63
2018-02-05T15:20:37.350Z,8.20
2018-02-05T15:23:03.645Z,7.50
2018-02-05T15:25:29.960Z,5.67
2018-02-05T15:27:57.030Z,5.70
2018-02-05T15:30:23.410Z,6.00
2018-02-05T15:32:49.731Z,5.60
2018-02-05T15:35:16.000Z,6.17
2018-02-05T15:37:43.030Z,7.63
2018-02-05T15:40:09.368Z,7.53
2018-02-05T15:42:35.658Z,6.70
2018-02-05T15:45:01.952Z,7.23
2018-02-05T15:47:28.301Z,6.80
2018-02-05T15:49:54.596Z,6.37
2018-02-05T15:52:21.600Z,8.60
2018-02-05T15:54:47.899Z,7.73
2018-02-05T15:57:14.253Z,7.20
2018-02-05T15:59:40.526Z,6.87
2018-02-05T16:02:06.867Z,7.03
2018-02-05T16:04:33.897Z,6.87
2018-02-05T16:07:00.259Z,7.20
2018-02-05T16:12:22.313Z,9.67
2018-02-05T16:14:49.402Z,9.13
2018-02-05T16:17:15.704Z,9.27
2018-02-05T16:19:42.059Z,8.67
2018-02-05T16:22:08.328Z,8.90
2018-02-05T16:24:34.661Z,9.00
2018-02-05T16:27:00.987Z,10.00
2018-02-05T16:29:27.226Z,10.13
2018-02-05T16:31:53.524Z,11.60
2018-02-05T16:34:19.771Z,8.90
2018-02-05T16:36:46.047Z,9.80
2018-02-05T16:39:12.532Z,9.50
2018-02-05T16:41:38.790Z,9.10
2018-02-05T16:44:05.796Z,10.50
2018-02-05T16:46:32.081Z,10.77
2018-02-05T16:48:59.396Z,9.80
2018-02-05T16:51:25.821Z,9.60
2018-02-05T16:53:52.157Z,11.57
2018-02-05T16:56:18.411Z,9.93
2018-02-05T16:58:44.717Z,8.90
2018-02-05T17:01:11.285Z,9.43
2018-02-05T17:03:38.357Z,9.23
2018-02-05T17:06:04.634Z,8.73
2018-02-05T17:08:30.946Z,10.63
2018-02-05T17:11:00.898Z,9.50
2018-02-05T17:13:27.176Z,9.47
2018-02-05T17:15:58.369Z,9.40
2018-02-05T17:18:24.619Z,9.73
2018-02-05T17:20:52.956Z,9.80
2018-02-05T17:23:19.226Z,8.23
2018-02-05T17:25:46.231Z,8.43
2018-02-05T17:28:12.562Z,8.73
2018-02-05T17:30:38.840Z,9.50
2018-02-05T17:33:05.856Z,9.97
2018-02-05T17:35:32.184Z,8.23
2018-02-05T17:37:58.510Z,8.63
2018-02-05T17:40:24.809Z,9.90
2018-02-05T17:42:51.239Z,9.77
2018-02-05T17:45:17.591Z,10.53
2018-02-05T17:47:43.913Z,9.67
2018-02-05T17:50:10.200Z,8.57
2018-02-05T17:52:37.313Z,7.87
2018-02-05T17:55:03.606Z,8.60
2018-02-05T17:57:29.883Z,8.17
2018-02-05T17:59:56.201Z,8.73
2018-02-05T18:02:22.505Z,9.00
2018-02-05T18:04:48.796Z,7.23
2018-02-05T18:07:15.814Z,6.53
2018-02-05T18:09:42.119Z,7.63
2018-02-05T18:12:08.508Z,7.10
2018-02-05T18:14:35.521Z,7.50
2018-02-05T18:17:01.838Z,6.67
2018-02-05T18:19:28.164Z,7.53
2018-02-05T18:21:54.422Z,9.07
2018-02-05T18:24:21.749Z,9.07
2018-02-05T18:26:48.090Z,5.93
2018-02-05T18:29:14.430Z,6.97
2018-02-05T18:31:40.780Z,8.40
2018-02-05T18:34:07.062Z,6.47
2018-02-05T18:36:33.337Z,7.50
2018-02-05T18:38:59.653Z,5.70
2018-02-05T18:41:26.007Z,7.33
2018-02-05T18:43:52.326Z,6.53
2018-02-05T18:46:18.624Z,15.40
2018-02-05T18:48:45.095Z,7.53
2018-02-05T18:51:11.519Z,5.20
2018-02-05T18:53:37.845Z,12.53
2018-02-05T18:56:04.203Z,6.10
2018-02-05T18:58:31.297Z,8.40
2018-02-05T19:00:57.591Z,7.17
2018-02-05T19:03:24.669Z,8.07
2018-02-05T19:05:50.993Z,7.37
2018-02-05T19:08:17.372Z,7.07
2018-02-05T19:10:43.654Z,5.27
2018-02-05T19:13:09.943Z,8.10
2018-02-05T19:15:36.237Z,5.93
2018-02-05T19:18:02.542Z,7.83
2018-02-05T19:20:28.804Z,7.40
2018-02-05T19:22:55.082Z,6.07
2018-02-05T19:25:22.152Z,7.70
2018-02-05T19:27:48.448Z,6.67
2018-02-05T19:30:14.803Z,5.33
2018-02-05T19:32:41.894Z,6.20
2018-02-05T19:35:08.203Z,6.67
2018-02-05T19:37:34.719Z,6.30
2018-02-05T19:40:01.777Z,6.30
2018-02-05T19:42:28.101Z,6.20
2018-02-05T19:44:55.150Z,6.83
2018-02-05T19:47:21.623Z,5.97
2018-02-05T19:49:47.957Z,6.40
2018-02-05T19:52:14.237Z,6.17
2018-02-05T19:54:41.327Z,5.67
2018-02-05T19:57:07.642Z,4.27
2018-02-05T19:59:33.938Z,5.73
2018-02-05T20:02:01.006Z,6.33
2018-02-05T20:04:29.004Z,6.23
2018-02-05T20:06:55.294Z,9.90
2018-02-05T20:09:22.306Z,14.73
2018-02-05T20:11:48.674Z,8.30
2018-02-05T20:14:15.748Z,6.70
2018-02-05T20:16:42.120Z,6.70
2018-02-05T20:19:08.509Z,11.33
2018-02-05T20:21:34.817Z,9.27
2018-02-05T20:24:01.880Z,13.07
2018-02-05T20:26:28.273Z,8.37
2018-02-05T20:28:54.637Z,6.87
2018-02-05T20:31:20.911Z,7.10
2018-02-05T20:33:47.225Z,10.30
2018-02-05T20:36:13.526Z,6.80
2018-02-05T20:38:40.686Z,6.43
2018-02-05T20:41:07.746Z,7.40
2018-02-05T20:43:34.046Z,7.27
2018-02-05T20:46:01.098Z,6.63
2018-02-05T20:48:28.122Z,6.23
2018-02-05T20:50:54.417Z,7.97
2018-02-05T20:53:20.762Z,6.50
2018-02-05T20:55:47.057Z,6.70
2018-02-05T20:58:13.410Z,7.10
2018-02-05T21:00:39.694Z,6.80
2018-02-05T21:03:06.738Z,6.10
2018-02-05T21:05:33.045Z,7.50
2018-02-05T21:07:59.351Z,7.13
2018-02-05T21:10:25.681Z,6.80
2018-02-05T21:12:51.986Z,6.90
2018-02-05T21:15:18.357Z,7.10
2018-02-05T21:17:44.661Z,6.60
2018-02-05T21:20:11.678Z,7.40
2018-02-05T21:22:38.839Z,8.50
2018-02-05T21:25:05.943Z,8.10
2018-02-05T21:27:32.217Z,6.27
2018-02-05T21:29:59.371Z,7.30
2018-02-05T21:32:26.422Z,7.60
2018-02-05T21:34:55.068Z,7.17
2018-02-05T21:37:21.364Z,7.90
2018-02-05T21:39:47.674Z,8.33
2018-02-05T21:42:14.015Z,7.20
2018-02-05T21:44:40.306Z,7.47
2018-02-05T21:47:07.134Z,6.97
2018-02-05T21:49:33.471Z,8.23
2018-02-05T21:51:59.787Z,9.17
2018-02-05T21:54:26.160Z,6.90
2018-02-05T21:56:53.193Z,7.67
2018-02-05T21:59:19.510Z,7.17
2018-02-05T22:01:45.820Z,8.60
2018-02-05T22:04:12.214Z,7.23
2018-02-05T22:09:36.328Z,7.43
2018-02-05T22:12:31.879Z,7.30
2018-02-05T22:14:58.977Z,6.43
2018-02-05T22:17:26.009Z,6.70
2018-02-05T22:19:52.999Z,7.60
2018-02-05T22:22:21.521Z,7.53
2018-02-05T22:24:47.860Z,7.53
2018-02-05T22:27:14.138Z,7.03
2018-02-05T22:29:40.478Z,7.57
2018-02-05T22:32:30.755Z,8.13
2018-02-05T22:34:57.055Z,7.47
2018-02-05T22:37:24.056Z,8.17
2018-02-05T22:39:50.353Z,7.43
2018-02-05T22:42:16.661Z,7.67
2018-02-05T22:47:40.907Z,8.33
2018-02-05T22:50:07.220Z,7.73
2018-02-05T22:52:33.561Z,9.57
2018-02-05T22:54:59.917Z,8.00
2018-02-05T22:57:26.205Z,8.10
2018-02-05T22:59:53.250Z,8.53
2018-02-05T23:02:19.697Z,8.40
2018-02-05T23:04:46.007Z,7.80
2018-02-05T23:07:12.264Z,8.10
2018-02-05T23:09:38.516Z,9.07
2018-02-05T23:12:04.799Z,8.53
2018-02-05T23:14:31.854Z,7.20
2018-02-05T23:16:58.937Z,9.60
2018-02-05T23:19:25.207Z,10.20
2018-02-05T23:21:51.522Z,8.67
2018-02-05T23:24:17.819Z,8.77
2018-02-05T23:26:44.142Z,8.13
2018-02-05T23:29:10.454Z,8.33
2018-02-05T23:31:37.520Z,9.17
2018-02-05T23:34:03.816Z,10.50
2018-02-05T23:36:30.070Z,9.90
2018-02-05T23:38:56.384Z,8.77
2018-02-05T23:41:22.751Z,9.50
2018-02-05T23:43:49.141Z,9.97
2018-02-05T23:46:15.461Z,7.87
2018-02-05T23:48:41.758Z,11.20
2018-02-05T23:51:08.053Z,9.00
2018-02-05T23:53:34.415Z,9.57
2018-02-05T23:56:00.705Z,10.03
2018-02-05T23:58:27.757Z,9.10
